Time;durP1;ratioP1;P1;durP2;ratioP2;P2;SDS_P1;SDS_P2;PMS_P1;PMS_P2;Temp;Humidity;BMP_temperature;BMP_pressure;BME280_temperature;BME280_humidity;BME280_pressure;Samples;Min_cycle;Max_cycle;Signal;HPM_P1;HPM_P2
2021/11/26 00:02:18;;;;;;;15.17;8.67;;;;;;;1.49;85.15;100783.00;5092736;28;20024;-72
2021/11/26 00:04:44;;;;;;;15.68;9.98;;;;;;;1.27;84.71;100755.88;5092469;28;20078;-73
2021/11/26 00:07:09;;;;;;;14.70;8.50;;;;;;;1.37;84.67;100766.03;5092722;28;20052;-73
2021/11/26 00:09:35;;;;;;;14.47;8.57;;;;;;;1.47;84.15;100784.53;5091852;28;20020;-73
2021/11/26 00:12:01;;;;;;;14.97;8.77;;;;;;;1.43;84.44;100789.41;5092370;28;20431;-72
2021/11/26 00:14:29;;;;;;;16.43;9.40;;;;;;;0.26;84.32;100595.50;5092240;28;20027;-71
2021/11/26 00:16:59;;;;;;;15.33;9.00;;;;;;;1.04;84.52;100726.09;5092218;28;20016;-72
2021/11/26 00:19:25;;;;;;;15.25;8.73;;;;;;;0.90;84.45;100694.50;5092253;28;20024;-74
2021/11/26 00:21:52;;;;;;;12.80;8.37;;;;;;;1.35;84.63;100771.75;5092066;28;20036;-80
2021/11/26 00:24:18;;;;;;;15.90;8.67;;;;;;;1.31;84.80;100774.81;5092070;28;20031;-74
2021/11/26 00:26:46;;;;;;;18.13;9.53;;;;;;;1.32;84.58;100774.03;5092319;28;20039;-76
2021/11/26 00:29:12;;;;;;;14.63;8.87;;;;;;;0.53;84.60;100645.84;5092282;28;20028;-74
2021/11/26 00:31:38;;;;;;;15.07;8.80;;;;;;;1.12;85.25;100764.09;5092113;28;20028;-74
2021/11/26 00:34:05;;;;;;;11.83;8.73;;;;;;;0.96;85.95;100759.44;5092246;28;20024;-74
2021/11/26 00:36:31;;;;;;;13.87;7.63;;;;;;;0.98;86.67;100759.53;5091675;28;20082;-73
2021/11/26 00:39:00;;;;;;;16.30;7.93;;;;;;;0.78;86.97;100725.78;5091603;28;20060;-72
2021/11/26 00:41:25;;;;;;;11.80;8.10;;;;;;;0.54;87.01;100675.56;5091788;28;20031;-71
2021/11/26 00:43:51;;;;;;;17.33;8.03;;;;;;;0.62;86.28;100684.66;5091831;28;20622;-77
2021/11/26 00:46:18;;;;;;;13.50;9.03;;;;;;;0.56;87.22;100710.50;5091342;28;20066;-71
2021/11/26 00:48:43;;;;;;;11.70;8.00;;;;;;;0.78;87.60;100761.38;5091657;28;20031;-71
2021/11/26 00:51:09;;;;;;;15.03;8.87;;;;;;;0.60;88.17;100768.41;5091670;28;20032;-72
2021/11/26 00:53:35;;;;;;;11.60;7.87;;;;;;;0.55;88.62;100749.34;5091740;28;20055;-71
2021/11/26 00:56:00;;;;;;;13.23;8.17;;;;;;;0.39;88.44;100698.97;5091862;28;20111;-72
2021/11/26 00:58:26;;;;;;;15.47;8.17;;;;;;;0.64;87.55;100737.38;5091602;28;20039;-72
2021/11/26 01:00:51;;;;;;;17.70;8.40;;;;;;;0.83;87.01;100743.06;5091617;28;20059;-72
2021/11/26 01:03:17;;;;;;;14.30;8.60;;;;;;;0.90;86.01;100732.66;5091721;28;20125;-71
2021/11/26 01:05:42;;;;;;;13.87;7.87;;;;;;;0.93;85.86;100727.78;5091243;28;20067;-71
2021/11/26 01:08:08;;;;;;;14.53;8.50;;;;;;;0.71;85.57;100704.84;5091589;28;20031;-71
2021/11/26 01:10:34;;;;;;;14.70;8.33;;;;;;;0.62;86.75;100726.22;5091575;28;20097;-73
2021/11/26 01:13:00;;;;;;;18.87;10.47;;;;;;;0.77;86.95;100726.56;5091689;28;20028;-74
2021/11/26 01:15:29;;;;;;;12.30;8.77;;;;;;;0.93;86.31;100740.50;5091428;28;20028;-71
2021/11/26 01:17:55;;;;;;;13.88;9.02;;;;;;;0.88;85.16;100706.19;5073571;28;20032;-75
2021/11/26 01:20:24;;;;;;;14.67;8.47;;;;;;;0.28;84.26;100606.66;5073122;28;20028;-72
2021/11/26 01:22:50;;;;;;;11.40;7.10;;;;;;;0.87;84.17;100704.41;5091616;28;20024;-72
2021/11/26 01:25:16;;;;;;;16.63;9.10;;;;;;;0.89;84.03;100703.78;5091371;28;20028;-71
2021/11/26 01:27:42;;;;;;;15.30;9.00;;;;;;;0.82;84.63;100685.38;5091596;28;20444;-71
2021/11/26 01:30:15;;;;;;;11.73;8.47;;;;;;;0.56;84.56;100657.13;5091238;28;20020;-72
2021/11/26 01:32:42;;;;;;;16.23;8.57;;;;;;;0.55;84.85;100659.53;5091399;28;20107;-71
2021/11/26 01:35:08;;;;;;;15.43;8.93;;;;;;;0.80;84.75;100686.16;5091352;28;20024;-73
2021/11/26 01:37:33;;;;;;;18.20;9.13;;;;;;;0.41;85.09;100608.53;5091273;28;20032;-73
2021/11/26 01:39:59;;;;;;;15.10;8.10;;;;;;;0.86;84.82;100682.31;5091099;28;20031;-72
2021/11/26 01:42:24;;;;;;;15.47;8.97;;;;;;;0.85;85.04;100678.88;5091482;28;20054;-74
2021/11/26 01:44:50;;;;;;;14.47;8.50;;;;;;;0.75;84.46;100651.84;5091283;28;20052;-73
2021/11/26 01:47:16;;;;;;;12.30;8.30;;;;;;;0.99;84.63;100664.72;5091318;28;20063;-76
2021/11/26 01:49:41;;;;;;;12.67;7.87;;;;;;;0.73;85.14;100666.09;5090861;28;20028;-74
2021/11/26 01:52:07;;;;;;;15.50;9.30;;;;;;;0.73;85.34;100666.09;5091327;28;20077;-72
2021/11/26 01:54:32;;;;;;;16.53;8.27;;;;;;;0.60;85.46;100633.75;5091394;28;20493;-72
2021/11/26 01:56:58;;;;;;;16.30;9.67;;;;;;;0.74;85.76;100657.69;5090985;28;20032;-72
2021/11/26 01:59:24;;;;;;;15.77;9.40;;;;;;;0.68;85.87;100639.44;5094736;28;20032;-73
2021/11/26 02:01:49;;;;;;;15.63;8.70;;;;;;;0.64;85.47;100624.72;5094734;28;20512;-73
2021/11/26 02:04:14;;;;;;;17.50;9.77;;;;;;;0.70;85.31;100648.06;5094597;28;20042;-73
2021/11/26 02:06:40;;;;;;;18.23;9.70;;;;;;;0.52;84.61;100638.97;5094830;28;20122;-75
2021/11/26 02:09:06;;;;;;;18.63;10.03;;;;;;;0.33;84.74;100642.59;5094861;28;20055;-72
2021/11/26 02:11:32;;;;;;;18.63;9.47;;;;;;;0.31;85.18;100633.94;5094820;28;20113;-75
2021/11/26 02:13:57;;;;;;;17.43;10.10;;;;;;;0.24;85.52;100614.81;5094805;28;20097;-72
2021/11/26 02:16:23;;;;;;;17.93;10.40;;;;;;;0.14;85.72;100599.59;5094880;28;20028;-73
2021/11/26 02:18:49;;;;;;;21.00;11.20;;;;;;;-0.14;85.36;100551.66;5071446;28;20037;-71
2021/11/26 02:21:18;;;;;;;17.33;9.40;;;;;;;0.21;85.55;100606.03;5072017;28;20130;-72
2021/11/26 02:23:43;;;;;;;17.10;10.80;;;;;;;0.32;85.49;100612.88;5071740;28;20040;-73
2021/11/26 02:26:09;;;;;;;19.77;10.03;;;;;;;-0.30;85.28;100501.31;5055029;28;20056;-76
2021/11/26 02:28:34;;;;;;;18.67;10.33;;;;;;;-0.31;85.90;100499.59;5071738;28;20071;-73
2021/11/26 02:31:00;;;;;;;18.87;10.13;;;;;;;0.34;85.36;100592.66;5071756;28;20126;-72
2021/11/26 02:33:25;;;;;;;16.20;10.13;;;;;;;0.29;85.71;100574.56;5071483;28;20045;-73
2021/11/26 02:35:52;;;;;;;15.40;10.03;;;;;;;0.33;85.54;100589.25;5054933;28;20047;-72
2021/11/26 02:38:21;;;;;;;19.13;10.10;;;;;;;-0.09;86.32;100534.28;5071524;28;20792;-71
2021/11/26 02:40:46;;;;;;;18.97;9.73;;;;;;;0.04;87.34;100589.44;5071576;28;20038;-73
2021/11/26 02:43:13;;;;;;;16.27;10.77;;;;;;;0.07;88.46;100613.44;5071492;28;20112;-74
2021/11/26 02:45:41;;;;;;;18.67;11.03;;;;;;;0.15;88.82;100604.78;5071192;28;20113;-72
2021/11/26 02:48:07;;;;;;;19.00;12.30;;;;;;;-0.23;88.67;100516.28;5071252;28;20579;-72
2021/11/26 02:50:34;;;;;;;19.63;11.73;;;;;;;0.41;88.28;100611.09;5068523;28;20036;-73
2021/11/26 02:53:00;;;;;;;19.57;10.53;;;;;;;0.35;88.12;100600.44;5073406;28;20457;-73
2021/11/26 02:55:29;;;;;;;15.93;10.67;;;;;;;-0.10;87.76;100507.13;5073800;28;20033;-77
2021/11/26 02:57:55;;;;;;;19.98;11.75;;;;;;;0.60;87.32;100608.34;5072160;28;20511;-73
2021/11/26 03:00:26;;;;;;;17.47;10.80;;;;;;;0.68;86.41;100608.06;5073039;28;20170;-73
2021/11/26 03:02:53;;;;;;;19.60;11.67;;;;;;;0.68;86.22;100606.41;5073749;28;20103;-73
2021/11/26 03:05:19;;;;;;;19.33;10.60;;;;;;;0.56;86.23;100611.41;5073050;28;20028;-73
2021/11/26 03:07:45;;;;;;;20.77;11.43;;;;;;;0.26;86.62;100595.50;5073286;28;20031;-73
2021/11/26 03:10:16;;;;;;;16.77;10.63;;;;;;;-0.04;87.05;100569.44;5072620;28;20031;-72
2021/11/26 03:12:46;;;;;;;18.73;10.60;;;;;;;0.08;87.01;100632.09;5073022;28;20099;-72
2021/11/26 03:15:12;;;;;;;16.70;10.57;;;;;;;-0.31;88.06;100593.44;5073344;28;20017;-73
2021/11/26 03:17:37;;;;;;;19.43;10.70;;;;;;;-0.57;88.14;100538.91;5072978;28;20474;-73
2021/11/26 03:20:03;;;;;;;19.70;10.77;;;;;;;-0.36;88.52;100592.19;5073302;28;20035;-73
2021/11/26 03:22:29;;;;;;;17.03;9.73;;;;;;;-0.30;88.58;100607.00;5072936;28;20529;-73
2021/11/26 03:24:54;;;;;;;18.90;11.60;;;;;;;-0.41;88.10;100585.81;5072708;28;20039;-73
2021/11/26 03:27:20;;;;;;;23.87;11.37;;;;;;;-0.42;87.85;100563.78;5072990;28;20024;-73
2021/11/26 03:29:45;;;;;;;17.20;9.80;;;;;;;-0.38;86.98;100561.59;5072920;28;20059;-72
2021/11/26 03:32:10;;;;;;;21.70;11.23;;;;;;;-0.27;86.50;100566.69;5073070;28;20030;-73
2021/11/26 03:34:36;;;;;;;19.47;11.43;;;;;;;-0.50;86.38;100525.06;5072725;28;20028;-73
2021/11/26 03:37:01;;;;;;;21.83;11.13;;;;;;;-0.31;86.41;100577.31;5073015;28;20028;-72
2021/11/26 03:39:27;;;;;;;17.37;10.43;;;;;;;-0.33;86.39;100588.22;5072485;28;20462;-78
2021/11/26 03:41:53;;;;;;;21.00;11.67;;;;;;;-0.45;85.93;100550.81;5071435;28;20116;-73
2021/11/26 03:44:18;;;;;;;20.43;11.90;;;;;;;-0.60;86.21;100537.78;5076978;28;20052;-73
2021/11/26 03:46:44;;;;;;;19.53;11.03;;;;;;;-0.47;86.35;100563.38;5093112;28;20483;-77
2021/11/26 03:49:09;;;;;;;21.70;12.00;;;;;;;-0.38;86.41;100568.34;5074911;28;20036;-73
2021/11/26 03:51:35;;;;;;;22.17;11.73;;;;;;;-0.39;85.99;100536.09;5092535;28;20024;-72
2021/11/26 03:54:00;;;;;;;19.63;11.80;;;;;;;-0.41;86.21;100524.94;5092851;28;20112;-73
2021/11/26 03:56:26;;;;;;;23.60;12.90;;;;;;;-0.75;85.65;100472.34;5092455;28;20405;-73
2021/11/26 03:58:51;;;;;;;22.33;12.00;;;;;;;-0.74;85.64;100484.28;5092385;28;20391;-75
2021/11/26 04:01:17;;;;;;;20.90;11.90;;;;;;;-0.30;85.53;100558.81;5092857;28;20103;-72
2021/11/26 04:03:42;;;;;;;18.57;11.57;;;;;;;-0.35;86.45;100554.25;5092202;28;20028;-73
2021/11/26 04:06:08;;;;;;;19.87;11.40;;;;;;;-0.37;87.30;100545.63;5092283;28;20028;-71
2021/11/26 04:08:33;;;;;;;20.40;11.40;;;;;;;-0.28;87.02;100547.13;5092525;28;20108;-72
2021/11/26 04:10:59;;;;;;;19.10;11.63;;;;;;;-0.24;87.02;100555.09;5092575;28;20445;-72
2021/11/26 04:13:24;;;;;;;18.93;10.97;;;;;;;-0.26;86.54;100546.50;5091829;28;20064;-73
2021/11/26 04:15:50;;;;;;;16.40;10.83;;;;;;;-0.40;87.08;100519.09;5092509;28;20016;-72
2021/11/26 04:18:15;;;;;;;16.83;10.43;;;;;;;-0.44;86.80;100515.44;5092046;28;20023;-73
2021/11/26 04:20:43;;;;;;;15.53;9.73;;;;;;;-1.02;86.90;100413.59;5092225;28;20028;-73
2021/11/26 04:23:09;;;;;;;17.90;10.67;;;;;;;-0.86;86.40;100437.63;5091956;28;20016;-73
2021/11/26 04:25:36;;;;;;;18.50;10.87;;;;;;;-0.39;87.07;100528.50;5091951;28;20024;-73
2021/11/26 04:28:02;;;;;;;19.07;10.50;;;;;;;-0.31;86.84;100541.81;5091508;28;20417;-72
2021/11/26 04:30:30;;;;;;;17.73;12.00;;;;;;;-0.46;86.90;100501.75;5092060;28;20081;-73
2021/11/26 04:32:55;;;;;;;16.43;11.07;;;;;;;-0.44;86.63;100510.34;5092111;28;20027;-73
2021/11/26 04:35:21;;;;;;;20.60;11.40;;;;;;;-0.35;86.28;100528.88;5091871;28;20024;-73
2021/11/26 04:37:48;;;;;;;20.57;12.07;;;;;;;-0.47;85.31;100520.28;5091703;28;20024;-71
2021/11/26 04:40:15;;;;;;;18.13;11.43;;;;;;;-0.22;85.31;100532.41;5091940;28;20020;-73
2021/11/26 04:42:42;;;;;;;18.33;12.77;;;;;;;-0.20;84.91;100526.69;5091946;28;20116;-74
2021/11/26 04:45:10;;;;;;;20.10;11.07;;;;;;;-0.31;84.86;100503.75;5091495;28;20569;-73
2021/11/26 04:47:36;;;;;;;18.53;11.80;;;;;;;-0.44;84.62;100494.28;5089725;28;20479;-73
2021/11/26 04:50:02;;;;;;;19.37;11.50;;;;;;;-0.58;84.89;100471.22;5091899;28;20024;-73
2021/11/26 04:52:27;;;;;;;18.17;10.73;;;;;;;-0.93;84.56;100423.59;5085461;28;20406;-73
2021/11/26 04:54:53;;;;;;;20.93;12.03;;;;;;;-0.70;85.08;100452.47;5073402;28;20024;-69
2021/11/26 04:57:18;;;;;;;26.03;12.17;;;;;;;-0.31;85.01;100501.22;5080751;28;20028;-73
2021/11/26 04:59:44;;;;;;;18.80;11.67;;;;;;;-0.69;85.73;100421.28;5086796;28;20102;-73
2021/11/26 05:02:10;;;;;;;21.63;11.83;;;;;;;-0.32;86.39;100495.25;5087328;28;20032;-74
2021/11/26 05:04:35;;;;;;;18.30;11.37;;;;;;;-0.62;88.30;100498.72;5054403;28;20608;-75
2021/11/26 05:07:02;;;;;;;20.17;11.70;;;;;;;-0.74;89.60;100496.06;5089919;28;20433;-74
2021/11/26 05:09:27;;;;;;;20.70;12.20;;;;;;;-1.20;91.78;100488.94;5091588;28;20080;-74
2021/11/26 05:11:55;;;;;;;24.67;12.60;;;;;;;-1.37;93.75;100511.97;5091950;28;20111;-74
2021/11/26 05:14:23;;;;;;;29.60;17.57;;;;;;;-1.67;94.14;100445.28;5091212;28;20032;-73
2021/11/26 05:16:48;;;;;;;40.80;21.00;;;;;;;-1.19;93.67;100505.91;5091643;28;20031;-73
2021/11/26 05:19:14;;;;;;;41.97;20.93;;;;;;;-1.72;93.21;100395.94;5091664;28;20020;-72
2021/11/26 05:21:39;;;;;;;27.57;15.60;;;;;;;-1.33;93.09;100471.84;5090236;28;20089;-72
2021/11/26 05:24:05;;;;;;;30.17;17.00;;;;;;;-1.33;92.92;100487.03;5091307;28;20428;-72
2021/11/26 05:26:31;;;;;;;32.60;17.03;;;;;;;-1.22;92.73;100509.84;5089591;28;20063;-73
2021/11/26 05:28:57;;;;;;;36.20;17.73;;;;;;;-1.14;92.38;100508.84;5091483;28;20123;-73
2021/11/26 05:31:22;;;;;;;35.47;18.83;;;;;;;-1.20;92.47;100499.06;5039396;28;20107;-74
2021/11/26 05:33:48;;;;;;;41.30;23.53;;;;;;;-1.26;92.42;100505.28;5094150;28;20020;-72
2021/11/26 05:36:14;;;;;;;39.73;23.47;;;;;;;-1.68;93.12;100473.91;5089874;28;20023;-72
2021/11/26 05:38:40;;;;;;;40.47;24.57;;;;;;;-2.31;94.26;100394.34;5094213;28;20023;-72
2021/11/26 05:41:06;;;;;;;39.77;23.13;;;;;;;-1.79;95.14;100498.28;5093674;28;20421;-72
2021/11/26 05:43:31;;;;;;;68.13;33.03;;;;;;;-1.49;94.73;100509.28;5075411;28;20028;-72
2021/11/26 05:45:57;;;;;;;107.57;47.17;;;;;;;-1.96;94.83;100438.63;5075016;28;20586;-71
2021/11/26 05:48:22;;;;;;;100.73;44.67;;;;;;;-1.59;95.80;100494.94;5075063;28;20437;-72
2021/11/26 05:50:48;;;;;;;63.80;30.63;;;;;;;-2.08;96.21;100408.13;5075243;28;20043;-72
2021/11/26 05:53:14;;;;;;;46.63;24.23;;;;;;;-1.59;96.41;100494.94;5074624;28;20024;-72
2021/11/26 05:55:39;;;;;;;37.67;21.27;;;;;;;-2.25;96.90;100398.19;5075028;28;20032;-72
2021/11/26 05:58:05;;;;;;;38.63;20.77;;;;;;;-1.63;97.34;100508.09;5074753;28;20048;-72
2021/11/26 06:00:31;;;;;;;33.60;18.47;;;;;;;-1.88;97.91;100457.91;5080378;28;20047;-73
2021/11/26 06:02:57;;;;;;;37.57;19.03;;;;;;;-1.73;99.38;100481.13;5094944;28;20028;-72
2021/11/26 06:05:24;;;;;;;44.60;18.53;;;;;;;-2.03;100.00;100438.84;5081304;28;20482;-73
2021/11/26 06:07:49;;;;;;;45.57;18.33;;;;;;;-1.87;100.00;100457.16;5074436;28;20120;-73
2021/11/26 06:10:15;;;;;;;61.20;22.40;;;;;;;-1.71;100.00;100478.72;5074740;28;20107;-72
2021/11/26 06:12:43;;;;;;;43.47;22.10;;;;;;;-2.34;100.00;100388.16;5074663;28;20042;-73
2021/11/26 06:15:10;;;;;;;58.70;24.13;;;;;;;-1.84;100.00;100470.06;5077745;28;20398;-73
2021/11/26 06:17:37;;;;;;;52.63;24.83;;;;;;;-1.67;100.00;100471.50;5094793;28;20024;-73
2021/11/26 06:20:03;;;;;;;59.23;26.03;;;;;;;-1.55;100.00;100464.06;5090900;28;20028;-73
2021/11/26 06:22:29;;;;;;;55.87;27.27;;;;;;;-1.52;100.00;100469.41;5088676;28;20152;-74
2021/11/26 06:24:54;;;;;;;49.17;23.20;;;;;;;-1.61;100.00;100445.81;5093969;28;20466;-74
2021/11/26 06:27:20;;;;;;;46.20;22.07;;;;;;;-1.44;100.00;100464.09;5094388;28;20028;-74
2021/11/26 06:29:45;;;;;;;43.10;20.63;;;;;;;-1.43;100.00;100453.19;5094566;28;20032;-73
2021/11/26 06:32:13;;;;;;;43.57;20.23;;;;;;;-1.29;100.00;100472.09;5091119;28;20032;-74
2021/11/26 06:34:38;;;;;;;38.73;17.10;;;;;;;-1.51;100.00;100412.94;5069733;28;20096;-73
2021/11/26 06:37:04;;;;;;;50.97;20.37;;;;;;;-1.29;100.00;100426.53;5084445;28;20024;-73
2021/11/26 06:39:30;;;;;;;60.70;28.63;;;;;;;-1.14;100.00;100435.38;5074174;28;20028;-72
2021/11/26 06:41:56;;;;;;;73.03;25.40;;;;;;;-1.31;100.00;100422.22;5074437;28;20410;-72
2021/11/26 06:44:22;;;;;;;75.30;25.37;;;;;;;-1.24;100.00;100428.66;5072668;28;20057;-72
2021/11/26 06:46:47;;;;;;;48.17;20.03;;;;;;;-1.35;100.00;100435.34;5074005;28;20539;-72
2021/11/26 06:49:13;;;;;;;40.73;18.67;;;;;;;-1.99;100.00;100325.41;5073813;28;20601;-72
2021/11/26 06:51:39;;;;;;;39.13;19.83;;;;;;;-1.71;100.00;100357.22;5054878;28;20089;-72
2021/11/26 06:54:04;;;;;;;49.73;19.80;;;;;;;-1.36;100.00;100402.31;5080527;28;20032;-71
2021/11/26 06:56:31;;;;;;;35.23;18.43;;;;;;;-1.18;100.00;100413.09;5093608;28;20028;-72
2021/11/26 06:58:59;;;;;;;30.90;17.80;;;;;;;-1.16;100.00;100403.94;5093900;28;20089;-72
2021/11/26 07:01:25;;;;;;;30.97;16.63;;;;;;;-1.18;100.00;100378.50;5093807;28;20411;-71
2021/11/26 07:03:50;;;;;;;31.43;16.40;;;;;;;-1.18;100.00;100358.25;5075625;28;20489;-72
2021/11/26 07:06:16;;;;;;;33.40;17.50;;;;;;;-0.96;100.00;100372.66;5093703;28;20030;-73
2021/11/26 07:08:42;;;;;;;30.33;17.57;;;;;;;-1.08;100.00;100361.53;5093874;28;20034;-73
2021/11/26 07:11:07;;;;;;;32.80;17.07;;;;;;;-1.04;100.00;100386.34;5093580;28;20032;-72
2021/11/26 07:13:33;;;;;;;39.97;18.20;;;;;;;-1.11;100.00;100361.28;5093419;28;20035;-72
2021/11/26 07:15:59;;;;;;;46.07;19.63;;;;;;;-0.89;100.00;100349.56;5093303;28;20028;-72
2021/11/26 07:18:24;;;;;;;43.07;21.30;;;;;;;-0.83;100.00;100369.47;5093416;28;20024;-72
2021/11/26 07:20:50;;;;;;;36.30;17.97;;;;;;;-0.72;100.00;100377.94;5093207;28;20042;-72
2021/11/26 07:23:15;;;;;;;35.37;19.33;;;;;;;-0.94;100.00;100328.06;5093480;28;20024;-73
2021/11/26 07:25:41;;;;;;;35.90;19.40;;;;;;;-0.46;100.00;100379.13;5093462;28;20032;-71
2021/11/26 07:28:07;;;;;;;46.07;23.43;;;;;;;-0.40;100.00;100377.97;5093419;28;20039;-71
2021/11/26 07:30:32;;;;;;;37.40;21.00;;;;;;;-0.32;100.00;100388.72;5093262;28;20028;-71
2021/11/26 07:32:58;;;;;;;38.90;21.10;;;;;;;-0.42;100.00;100353.25;5093376;28;20038;-72
2021/11/26 07:35:24;;;;;;;36.87;20.90;;;;;;;-0.07;100.00;100390.66;5093156;28;20079;-73
2021/11/26 07:37:49;;;;;;;36.87;20.90;;;;;;;-0.18;100.00;100352.63;5093383;28;20448;-73
2021/11/26 07:40:15;;;;;;;39.67;22.00;;;;;;;0.04;100.00;100381.31;5093332;28;20032;-71
2021/11/26 07:42:42;;;;;;;35.73;20.77;;;;;;;-0.14;100.00;100383.31;5093016;28;20031;-73
2021/11/26 07:45:09;;;;;;;37.67;21.13;;;;;;;-0.19;100.00;100367.72;5092078;28;20050;-73
2021/11/26 07:47:35;;;;;;;40.90;20.93;;;;;;;-0.02;100.00;100364.84;5092250;28;20115;-71
2021/11/26 07:50:02;;;;;;;32.03;18.87;;;;;;;0.17;100.00;100366.25;5092606;28;20028;-73
2021/11/26 07:52:27;;;;;;;35.23;19.17;;;;;;;0.23;100.00;100338.81;5092951;28;20103;-72
2021/11/26 07:54:53;;;;;;;36.10;19.60;;;;;;;0.32;100.00;100336.97;5092557;28;20099;-71
2021/11/26 07:57:18;;;;;;;36.47;20.73;;;;;;;0.35;100.00;100316.00;5092454;28;20534;-73
2021/11/26 07:59:44;;;;;;;36.73;21.90;;;;;;;0.09;100.00;100255.66;5092637;28;20024;-73
2021/11/26 08:02:10;;;;;;;37.10;21.13;;;;;;;0.60;100.00;100313.63;5092593;28;20157;-73
2021/11/26 08:04:35;;;;;;;34.00;19.80;;;;;;;0.55;100.00;100288.66;5092391;28;20065;-74
2021/11/26 08:07:01;;;;;;;32.63;19.17;;;;;;;0.72;100.00;100310.22;5092730;28;20111;-73
2021/11/26 08:09:27;;;;;;;37.30;20.57;;;;;;;0.68;100.00;100309.13;5092481;28;20024;-73
2021/11/26 08:11:53;;;;;;;40.20;19.00;;;;;;;0.83;100.00;100300.88;5092674;28;20039;-73
2021/11/26 08:14:19;;;;;;;41.27;23.87;;;;;;;0.95;100.00;100295.00;5092462;28;20023;-74
2021/11/26 08:16:46;;;;;;;46.17;23.33;;;;;;;0.47;100.00;100199.19;5092179;28;20044;-74
2021/11/26 08:19:12;;;;;;;33.70;20.07;;;;;;;0.57;100.00;100190.59;5092449;28;20512;-74
2021/11/26 08:21:39;;;;;;;39.63;24.10;;;;;;;0.84;100.00;100217.09;5074353;28;20060;-73
2021/11/26 08:24:06;;;;;;;40.77;21.30;;;;;;;0.85;100.00;100192.56;5092426;28;20031;-74
2021/11/26 08:26:31;;;;;;;36.90;21.27;;;;;;;1.30;100.00;100234.72;5092358;28;20022;-74
2021/11/26 08:28:57;;;;;;;40.23;23.77;;;;;;;1.49;100.00;100262.31;5092184;28;20102;-74
2021/11/26 08:31:23;;;;;;;39.17;21.73;;;;;;;1.29;100.00;100210.94;5056623;28;20486;-74
2021/11/26 08:33:49;;;;;;;36.43;22.27;;;;;;;1.47;100.00;100235.03;5073905;28;20024;-73
2021/11/26 08:36:15;;;;;;;30.40;19.20;;;;;;;1.48;100.00;100237.66;5092340;28;20114;-74
2021/11/26 08:38:40;;;;;;;32.70;19.27;;;;;;;1.43;100.00;100237.38;5086703;28;20070;-71
2021/11/26 08:41:06;;;;;;;32.43;18.17;;;;;;;1.59;100.00;100272.34;5086457;28;20028;-75
2021/11/26 08:43:33;;;;;;;36.50;18.57;;;;;;;1.63;100.00;100255.66;5039508;28;20135;-71
2021/11/26 08:45:58;;;;;;;41.63;23.57;;;;;;;1.71;100.00;100234.16;5091564;28;20063;-73
2021/11/26 08:48:24;;;;;;;34.00;19.33;;;;;;;1.69;100.00;100199.22;5091582;28;20414;-72
2021/11/26 08:50:50;;;;;;;33.00;19.23;;;;;;;1.97;100.00;100213.78;5072909;28;20040;-73
2021/11/26 08:53:18;;;;;;;36.33;18.30;;;;;;;1.94;100.00;100205.19;5091942;28;20035;-74
2021/11/26 08:55:50;;;;;;;36.60;18.87;;;;;;;1.45;100.00;100106.06;5091916;28;20043;-75
2021/11/26 08:58:16;;;;;;;32.80;19.80;;;;;;;2.16;100.00;100205.75;5091938;28;20039;-73
2021/11/26 09:00:42;;;;;;;32.50;17.63;;;;;;;2.14;100.00;100202.19;5091762;28;20409;-75
2021/11/26 09:03:08;;;;;;;33.67;19.30;;;;;;;2.21;100.00;100195.06;5089196;28;20548;-75
2021/11/26 09:05:35;;;;;;;31.07;19.63;;;;;;;2.30;100.00;100194.78;5084279;28;20538;-74
2021/11/26 09:08:02;;;;;;;29.87;19.00;;;;;;;2.21;100.00;100186.53;5079780;28;20080;-73
2021/11/26 09:10:38;;;;;;;33.13;18.87;;;;;;;1.70;100.00;100069.53;5091700;28;20054;-73
2021/11/26 09:13:05;;;;;;;39.93;20.30;;;;;;;2.40;100.00;100180.97;5091409;28;20024;-75
2021/11/26 09:15:32;;;;;;;43.90;21.37;;;;;;;2.38;100.00;100146.88;5091462;28;20047;-74
2021/11/26 09:17:58;;;;;;;40.33;21.00;;;;;;;2.02;100.00;100065.66;5091499;28;20028;-71
2021/11/26 09:20:24;;;;;;;33.77;21.83;;;;;;;2.57;100.00;100141.31;5091387;28;20090;-71
2021/11/26 09:22:49;;;;;;;34.80;21.03;;;;;;;2.65;100.00;100123.94;5091411;28;20107;-74
2021/11/26 09:25:15;;;;;;;27.87;18.47;;;;;;;2.75;100.00;100113.53;5091502;28;20546;-74
2021/11/26 09:27:42;;;;;;;33.53;19.83;;;;;;;2.86;100.00;100106.56;5091653;28;20020;-74
2021/11/26 09:30:14;;;;;;;34.90;19.83;;;;;;;3.04;100.00;100107.69;5091004;28;20120;-73
2021/11/26 09:32:39;;;;;;;36.67;20.53;;;;;;;3.01;100.00;100094.75;5091148;28;20493;-74
2021/11/26 09:35:05;;;;;;;30.50;19.45;;;;;;;2.98;100.00;100089.47;5091092;28;20032;-73
2021/11/26 09:37:31;;;;;;;39.03;21.10;;;;;;;3.02;100.00;100057.38;5090969;28;20513;-74
2021/11/26 09:39:57;;;;;;;34.30;20.50;;;;;;;3.40;100.00;100087.75;5091081;28;20028;-74
2021/11/26 09:42:23;;;;;;;31.40;17.50;;;;;;;3.29;100.00;100041.94;5091146;28;20042;-72
2021/11/26 09:44:49;;;;;;;33.17;18.83;;;;;;;3.49;100.00;100045.66;5082710;28;20233;-73
2021/11/26 09:47:16;;;;;;;30.58;19.60;;;;;;;3.66;100.00;100042.41;5070863;28;20028;-74
2021/11/26 09:49:42;;;;;;;36.35;20.55;;;;;;;3.71;100.00;100041.03;5070759;28;20471;-71
2021/11/26 09:52:08;;;;;;;32.58;18.83;;;;;;;3.78;100.00;100028.63;5071060;28;20033;-72
2021/11/26 09:54:39;;;;;;;33.53;17.88;;;;;;;3.71;100.00;99994.19;5070781;28;20463;-72
2021/11/26 09:57:04;;;;;;;32.33;18.20;;;;;;;3.83;100.00;100027.22;5086014;28;20076;-73
2021/11/26 09:59:30;;;;;;;35.95;17.92;;;;;;;3.87;100.00;100007.00;5070673;28;20067;-75
2021/11/26 10:01:56;;;;;;;31.15;18.75;;;;;;;3.93;100.00;99996.28;5070636;28;20483;-72
2021/11/26 10:04:22;;;;;;;33.42;17.40;;;;;;;3.91;100.00;99987.66;5070715;28;20024;-75
2021/11/26 10:06:48;;;;;;;37.17;19.73;;;;;;;3.92;100.00;99958.75;5070669;28;20051;-76
2021/11/26 10:09:22;;;;;;;33.53;17.20;;;;;;;3.94;100.00;99953.72;5070807;28;20040;-70
2021/11/26 10:11:51;;;;;;;32.95;16.80;;;;;;;4.03;100.00;99941.47;5070151;28;20032;-72
2021/11/26 10:14:37;;;;;;;43.33;17.85;;;;;;;4.12;100.00;99930.88;5070777;28;20036;-70
2021/11/26 10:17:23;;;;;;;34.70;17.48;;;;;;;3.72;100.00;99858.09;5070438;28;20132;-73
2021/11/26 10:19:54;;;;;;;40.70;17.95;;;;;;;3.71;100.00;99843.56;5071369;28;20025;-72
2021/11/26 10:22:23;;;;;;;40.72;19.13;;;;;;;4.15;100.00;99914.03;5073927;28;20037;-72
2021/11/26 10:25:06;;;;;;;35.20;18.65;;;;;;;3.97;100.00;99896.03;5073937;28;20028;-72
2021/11/26 10:27:57;;;;;;;40.40;20.17;;;;;;;3.99;100.00;99893.59;5074173;28;20086;-72
2021/11/26 10:30:30;;;;;;;37.15;20.00;;;;;;;4.07;100.00;99888.88;5073552;28;20025;-73
2021/11/26 10:33:17;;;;;;;48.47;19.05;;;;;;;4.10;100.00;99869.50;5074308;28;20031;-72
2021/11/26 10:35:50;;;;;;;47.55;20.52;;;;;;;4.22;100.00;99866.69;5085675;28;20387;-72
2021/11/26 10:38:23;;;;;;;39.78;19.40;;;;;;;4.35;100.00;99858.88;5074441;28;20056;-73
2021/11/26 10:40:53;;;;;;;47.50;20.52;;;;;;;4.38;100.00;99820.69;5073998;28;20384;-74
2021/11/26 10:43:20;;;;;;;;;;;;;;;4.49;100.00;99841.69;5074449;28;20075;-74
2021/11/26 10:51:06;;;;;;;41.30;19.40;;;;;;;4.58;100.00;99808.06;5073834;28;20036;-76
2021/11/26 10:59:03;;;;;;;35.95;18.83;;;;;;;4.10;100.00;99754.56;5073529;28;20035;-73
2021/11/26 11:01:28;;;;;;;40.75;19.58;;;;;;;4.58;100.00;99894.09;5037529;28;20060;-69
2021/11/26 11:03:54;;;;;;;37.95;23.23;;;;;;;4.36;100.00;99885.31;5072428;28;20498;-69
2021/11/26 11:06:23;;;;;;;39.75;21.42;;;;;;;4.40;100.00;99871.00;5073028;28;20021;-70
2021/11/26 11:08:59;;;;;;;40.70;20.55;;;;;;;4.35;100.00;99874.22;5073039;28;20111;-73
2021/11/26 11:11:25;;;;;;;39.63;20.23;;;;;;;4.04;100.00;99770.41;5073482;28;20394;-71
2021/11/26 11:13:50;;;;;;;39.10;21.45;;;;;;;4.31;100.00;99785.44;5072832;28;20024;-71
2021/11/26 11:16:16;;;;;;;38.28;23.27;;;;;;;4.54;100.00;99776.34;5072194;28;20394;-71
2021/11/26 11:18:41;;;;;;;61.03;25.55;;;;;;;4.61;100.00;99766.41;5072875;28;20031;-72
2021/11/26 11:21:09;;;;;;;43.40;23.63;;;;;;;4.55;100.00;99726.13;5072297;28;20486;-70